Time;durP1;ratioP1;P1;durP2;ratioP2;P2;SDS_P1;SDS_P2;PMS_P1;PMS_P2;Temp;Humidity;BMP_temperature;BMP_pressure;BME280_temperature;BME280_humidity;BME280_pressure;Samples;Min_cycle;Max_cycle;Signal;HPM_P1;HPM_P2
2021/12/09 00:01:14;;;;;;;3.80;2.80;;;16.60;46.70;;;;;;5087002;28;46909;-20
2021/12/09 00:03:41;;;;;;;3.30;2.75;;;16.50;46.70;;;;;;5086910;28;47325;-20
2021/12/09 00:06:08;;;;;;;3.80;2.50;;;16.50;46.70;;;;;;5086308;28;49040;-20
2021/12/09 00:08:37;;;;;;;2.28;1.98;;;16.50;46.80;;;;;;5087080;28;47186;-21
2021/12/09 00:11:06;;;;;;;3.55;2.35;;;16.50;46.80;;;;;;5086737;28;46885;-17
2021/12/09 00:13:33;;;;;;;2.17;1.88;;;16.50;46.80;;;;;;5086811;28;46924;-20
2021/12/09 00:16:00;;;;;;;2.63;1.98;;;16.50;46.80;;;;;;5086427;28;46875;-17
2021/12/09 00:18:27;;;;;;;3.47;2.40;;;16.50;46.80;;;;;;5086644;28;46807;-17
2021/12/09 00:20:53;;;;;;;4.13;2.50;;;16.40;46.80;;;;;;5086628;28;47037;-16
2021/12/09 00:23:20;;;;;;;2.60;2.28;;;16.40;46.90;;;;;;5086605;27;47038;-20
2021/12/09 00:25:47;;;;;;;2.53;2.28;;;16.40;46.90;;;;;;5086159;28;49105;-16
2021/12/09 00:28:15;;;;;;;5.65;2.30;;;16.40;46.90;;;;;;5086588;28;46912;-20
2021/12/09 00:30:41;;;;;;;3.00;2.40;;;16.40;46.90;;;;;;5086581;28;46987;-16
2021/12/09 00:33:09;;;;;;;3.25;2.40;;;16.40;47.00;;;;;;5086839;28;46912;-18
2021/12/09 00:35:44;;;;;;;3.42;2.38;;;16.40;47.00;;;;;;5086302;28;48108;-20
2021/12/09 00:38:18;;;;;;;4.22;2.40;;;16.30;47.00;;;;;;5086448;28;46799;-20
2021/12/09 00:40:45;;;;;;;2.53;2.30;;;16.30;47.00;;;;;;5086124;28;46865;-21
2021/12/09 00:43:12;;;;;;;3.08;2.10;;;16.30;47.00;;;;;;5086358;28;46897;-19
2021/12/09 00:45:41;;;;;;;2.28;2.08;;;16.30;47.00;;;;;;5086120;28;47939;-21
2021/12/09 00:48:08;;;;;;;2.60;2.17;;;16.30;47.00;;;;;;5085940;27;46983;-19
2021/12/09 00:50:34;;;;;;;2.20;2.00;;;16.30;47.10;;;;;;5086162;28;46993;-21
2021/12/09 00:53:01;;;;;;;2.30;2.10;;;16.20;47.10;;;;;;5086644;28;46861;-20
2021/12/09 00:55:28;;;;;;;2.53;2.10;;;16.20;47.10;;;;;;5085286;28;47064;-20
2021/12/09 00:57:54;;;;;;;3.25;2.20;;;16.20;47.10;;;;;;5086108;28;47041;-20
2021/12/09 01:00:21;;;;;;;2.50;2.15;;;16.20;47.10;;;;;;5086013;28;46949;-21
2021/12/09 01:02:51;;;;;;;2.63;2.22;;;16.20;47.00;;;;;;5086089;27;47310;-21
2021/12/09 01:05:17;;;;;;;2.78;1.95;;;16.20;47.20;;;;;;5085876;28;48066;-21
2021/12/09 01:07:44;;;;;;;2.10;1.90;;;16.20;47.20;;;;;;5085637;28;46810;-18
2021/12/09 01:10:12;;;;;;;2.42;2.00;;;16.20;47.20;;;;;;5086056;28;47028;-17
2021/12/09 01:12:39;;;;;;;2.42;1.77;;;16.10;47.20;;;;;;5086173;28;47289;-17
2021/12/09 01:15:07;;;;;;;2.20;1.95;;;16.10;47.20;;;;;;5085428;28;48366;-16
2021/12/09 01:17:34;;;;;;;3.20;1.73;;;16.10;47.30;;;;;;5085864;27;46740;-18
2021/12/09 01:20:02;;;;;;;2.65;1.75;;;16.10;47.20;;;;;;5085828;28;46916;-21
2021/12/09 01:22:36;;;;;;;2.65;1.88;;;16.10;47.30;;;;;;5085828;28;46900;-16
2021/12/09 01:25:03;;;;;;;3.10;1.67;;;16.10;47.30;;;;;;5085135;28;47917;-20
2021/12/09 01:27:32;;;;;;;2.25;2.05;;;16.10;47.30;;;;;;5085653;28;47175;-20
2021/12/09 01:30:06;;;;;;;1.85;1.75;;;16.10;47.30;;;;;;5085525;28;47002;-16
2021/12/09 01:32:33;;;;;;;2.13;1.70;;;16.10;47.30;;;;;;5086026;28;46878;-20
2021/12/09 01:34:59;;;;;;;1.98;1.73;;;16.00;47.30;;;;;;5084306;28;47829;-16
2021/12/09 01:37:27;;;;;;;1.83;1.70;;;16.00;47.30;;;;;;5085449;28;46819;-17
2021/12/09 01:39:54;;;;;;;1.88;1.75;;;16.00;47.30;;;;;;5085190;28;46815;-20
2021/12/09 01:42:21;;;;;;;1.95;1.73;;;16.00;47.30;;;;;;5085312;28;47312;-20
2021/12/09 01:44:48;;;;;;;1.88;1.63;;;16.00;47.30;;;;;;5085051;28;46916;-17
2021/12/09 01:47:14;;;;;;;1.80;1.70;;;16.00;47.30;;;;;;5085419;28;46799;-21
2021/12/09 01:49:41;;;;;;;2.00;1.90;;;16.00;47.30;;;;;;5085351;28;47035;-21
2021/12/09 01:52:08;;;;;;;2.40;1.67;;;16.00;47.40;;;;;;5085684;28;46892;-20
2021/12/09 01:54:36;;;;;;;2.17;1.50;;;16.00;47.30;;;;;;5085327;28;49028;-21
2021/12/09 01:57:03;;;;;;;2.25;2.00;;;16.00;47.40;;;;;;5085186;28;46932;-20
2021/12/09 01:59:29;;;;;;;1.70;1.60;;;16.00;47.40;;;;;;5085195;27;46826;-17
2021/12/09 02:01:56;;;;;;;1.88;1.63;;;15.90;47.30;;;;;;5085522;28;47348;-17
2021/12/09 02:04:23;;;;;;;1.58;1.48;;;15.90;47.30;;;;;;5084973;28;47813;-20
2021/12/09 02:06:49;;;;;;;1.67;1.57;;;15.90;47.30;;;;;;5084673;28;46974;-21
2021/12/09 02:09:16;;;;;;;1.80;1.70;;;15.90;47.30;;;;;;5085466;28;46939;-18
2021/12/09 02:11:44;;;;;;;1.85;1.70;;;15.90;47.30;;;;;;5085135;28;46750;-17
2021/12/09 02:14:11;;;;;;;1.83;1.60;;;15.90;47.30;;;;;;5085101;28;48398;-21
2021/12/09 02:16:38;;;;;;;2.00;1.63;;;15.90;47.40;;;;;;5084878;28;46834;-20
2021/12/09 02:19:05;;;;;;;1.63;1.52;;;15.90;47.30;;;;;;5084855;28;46881;-21
2021/12/09 02:21:34;;;;;;;1.60;1.25;;;15.90;47.30;;;;;;5084886;28;46846;-21
2021/12/09 02:24:02;;;;;;;1.73;1.63;;;15.90;47.30;;;;;;5084710;27;47858;-20
2021/12/09 02:26:30;;;;;;;2.25;1.63;;;15.90;47.30;;;;;;5084514;28;47016;-20
2021/12/09 02:28:57;;;;;;;1.85;1.40;;;15.90;47.30;;;;;;5084893;28;47005;-20
2021/12/09 02:31:24;;;;;;;1.67;1.58;;;15.80;47.20;;;;;;5084934;28;46902;-20
2021/12/09 02:33:51;;;;;;;1.48;1.38;;;15.80;47.20;;;;;;5084586;28;47077;-18
2021/12/09 02:36:18;;;;;;;1.60;1.50;;;15.80;47.20;;;;;;5084749;28;47403;-17
2021/12/09 02:38:48;;;;;;;2.00;1.63;;;15.80;47.20;;;;;;5084914;27;46883;-17
2021/12/09 02:41:16;;;;;;;1.73;1.60;;;15.80;47.20;;;;;;5084878;28;47277;-17
2021/12/09 02:43:43;;;;;;;2.13;1.60;;;15.80;47.20;;;;;;5084527;27;49045;-18
2021/12/09 02:46:10;;;;;;;1.77;1.20;;;15.80;47.20;;;;;;5086982;27;47634;-17
2021/12/09 02:48:37;;;;;;;1.60;1.48;;;15.80;47.20;;;;;;5088068;28;46957;-17
2021/12/09 02:51:04;;;;;;;1.55;1.35;;;15.80;47.20;;;;;;5087881;28;47308;-20
2021/12/09 02:53:30;;;;;;;2.10;1.23;;;15.80;47.20;;;;;;5088362;28;46934;-21
2021/12/09 02:55:59;;;;;;;1.92;1.50;;;15.80;47.20;;;;;;5087577;28;46946;-21
2021/12/09 02:58:25;;;;;;;2.08;1.70;;;15.80;47.30;;;;;;5088156;28;46885;-21
2021/12/09 03:01:00;;;;;;;1.50;1.40;;;15.80;47.30;;;;;;5087910;28;46881;-21
2021/12/09 03:03:27;;;;;;;2.05;1.58;;;15.80;47.20;;;;;;5087764;28;46861;-17
2021/12/09 03:05:54;;;;;;;1.50;1.40;;;15.80;47.20;;;;;;5087459;28;47105;-20
2021/12/09 03:08:32;;;;;;;2.08;1.50;;;15.80;47.30;;;;;;5087892;28;46728;-21
2021/12/09 03:11:02;;;;;;;2.70;1.52;;;15.70;47.30;;;;;;5088025;28;47020;-21
2021/12/09 03:13:29;;;;;;;1.88;1.40;;;15.70;47.30;;;;;;5087786;28;48013;-21
2021/12/09 03:15:56;;;;;;;1.55;1.40;;;15.70;47.30;;;;;;5087273;28;46884;-17
2021/12/09 03:18:22;;;;;;;1.55;1.35;;;15.70;47.30;;;;;;5087770;28;47012;-19
2021/12/09 03:20:49;;;;;;;1.80;1.48;;;15.70;47.30;;;;;;5087360;28;46927;-17
2021/12/09 03:23:16;;;;;;;2.63;1.50;;;15.70;47.30;;;;;;5087584;28;48207;-20
2021/12/09 03:25:42;;;;;;;1.70;1.60;;;15.70;47.30;;;;;;5087407;28;46916;-20
2021/12/09 03:28:10;;;;;;;1.50;1.40;;;15.70;47.30;;;;;;5087655;28;46828;-20
2021/12/09 03:30:37;;;;;;;1.63;1.42;;;15.70;47.30;;;;;;5087745;28;47298;-20
2021/12/09 03:33:04;;;;;;;1.30;1.20;;;15.60;47.30;;;;;;5087437;28;48116;-17
2021/12/09 03:35:31;;;;;;;1.40;1.30;;;15.70;47.30;;;;;;5087164;28;47528;-17
2021/12/09 03:37:58;;;;;;;1.40;1.30;;;15.60;47.30;;;;;;5087502;28;47058;-17
2021/12/09 03:40:25;;;;;;;1.42;1.17;;;15.60;47.30;;;;;;5087547;28;47104;-17
2021/12/09 03:42:51;;;;;;;1.60;1.30;;;15.60;47.90;;;;;;5087521;28;48080;-17
2021/12/09 03:45:19;;;;;;;1.65;1.30;;;15.60;47.30;;;;;;5086831;28;47012;-21
2021/12/09 03:47:46;;;;;;;1.50;1.40;;;15.60;47.30;;;;;;5086995;28;46822;-17
2021/12/09 03:50:13;;;;;;;1.85;1.38;;;15.60;47.30;;;;;;5087021;28;46908;-20
2021/12/09 03:52:40;;;;;;;1.33;1.23;;;15.60;47.40;;;;;;5086871;28;47927;-17
2021/12/09 03:55:08;;;;;;;1.75;1.30;;;15.60;47.30;;;;;;5086796;28;46842;-20
2021/12/09 03:57:35;;;;;;;1.77;1.50;;;15.60;47.40;;;;;;5086525;27;46930;-17
2021/12/09 04:00:01;;;;;;;3.05;1.30;;;15.60;47.30;;;;;;5086853;28;47268;-17
2021/12/09 04:02:29;;;;;;;1.63;1.45;;;15.60;47.30;;;;;;5087006;28;47915;-20
2021/12/09 04:04:56;;;;;;;1.48;1.38;;;15.60;47.30;;;;;;5087160;28;47284;-17
2021/12/09 04:07:23;;;;;;;2.15;1.38;;;15.60;47.30;;;;;;5087090;28;46978;-21
2021/12/09 04:09:49;;;;;;;1.38;1.27;;;15.60;47.30;;;;;;5086885;28;47167;-21
2021/12/09 04:12:17;;;;;;;1.20;1.10;;;15.60;47.40;;;;;;5086867;27;47063;-17
2021/12/09 04:14:44;;;;;;;1.70;1.40;;;15.60;47.30;;;;;;5086445;28;46731;-17
2021/12/09 04:17:10;;;;;;;1.45;1.30;;;15.60;47.30;;;;;;5086891;28;46821;-17
2021/12/09 04:19:46;;;;;;;1.30;1.20;;;15.60;47.30;;;;;;5086906;28;47261;-17
2021/12/09 04:22:14;;;;;;;1.73;1.40;;;15.50;47.30;;;;;;5086897;28;47762;-20
2021/12/09 04:24:40;;;;;;;2.47;1.30;;;15.50;47.40;;;;;;5086803;28;47476;-20
2021/12/09 04:27:07;;;;;;;1.27;1.17;;;15.50;47.30;;;;;;5086710;28;46941;-21
2021/12/09 04:29:34;;;;;;;1.42;1.20;;;15.50;47.40;;;;;;5086900;28;47070;-22
2021/12/09 04:32:00;;;;;;;1.17;1.08;;;15.50;47.40;;;;;;5086200;28;47885;-18
2021/12/09 04:34:27;;;;;;;1.48;1.33;;;15.50;47.40;;;;;;5086767;28;47288;-20
2021/12/09 04:36:56;;;;;;;1.77;1.23;;;15.50;47.40;;;;;;5086341;28;47146;-21
2021/12/09 04:39:22;;;;;;;1.48;1.30;;;15.50;47.40;;;;;;5086659;28;46995;-17
2021/12/09 04:41:50;;;;;;;1.30;1.20;;;15.50;47.40;;;;;;5085744;28;47066;-17
2021/12/09 04:44:17;;;;;;;1.17;1.10;;;15.50;47.40;;;;;;5086005;28;46925;-17
2021/12/09 04:46:44;;;;;;;1.48;1.30;;;15.50;47.40;;;;;;5086389;27;46869;-17
2021/12/09 04:49:11;;;;;;;1.35;1.25;;;15.50;47.40;;;;;;5086471;28;46938;-18
2021/12/09 04:51:37;;;;;;;1.75;1.38;;;15.50;47.40;;;;;;5086087;28;48871;-17
2021/12/09 04:54:05;;;;;;;1.30;1.17;;;15.50;47.40;;;;;;5086181;28;46924;-20
2021/12/09 04:56:32;;;;;;;1.45;1.27;;;15.50;47.40;;;;;;5085929;28;46888;-17
2021/12/09 04:58:59;;;;;;;1.35;1.25;;;15.50;47.40;;;;;;5086411;28;47052;-20
2021/12/09 05:01:26;;;;;;;2.13;1.42;;;15.50;47.40;;;;;;5085747;28;46903;-17
2021/12/09 05:03:52;;;;;;;1.23;1.23;;;15.40;47.40;;;;;;5086078;28;46897;-20
2021/12/09 05:06:20;;;;;;;0.98;0.98;;;15.40;47.50;;;;;;5085565;28;46927;-21
2021/12/09 05:08:48;;;;;;;1.27;1.17;;;15.40;47.50;;;;;;5086075;28;47003;-18
2021/12/09 05:11:29;;;;;;;1.10;1.10;;;15.40;47.40;;;;;;5085773;28;48884;-19
2021/12/09 05:13:56;;;;;;;1.35;1.20;;;15.40;47.40;;;;;;5085623;28;47215;-17
2021/12/09 05:16:23;;;;;;;2.28;1.23;;;15.40;47.50;;;;;;5085685;28;46787;-16
2021/12/09 05:18:54;;;;;;;1.58;1.15;;;15.40;47.50;;;;;;5086144;28;47019;-18
2021/12/09 05:21:21;;;;;;;1.70;1.30;;;15.40;47.50;;;;;;5085696;28;49059;-18
2021/12/09 05:23:48;;;;;;;1.30;1.20;;;15.40;47.50;;;;;;5085397;28;46900;-17
2021/12/09 05:26:18;;;;;;;1.35;1.20;;;15.40;47.50;;;;;;5085717;28;46819;-21
2021/12/09 05:28:52;;;;;;;1.88;1.25;;;15.40;47.50;;;;;;5085589;28;46887;-17
2021/12/09 05:34:03;;;;;;;2.25;1.33;;;15.40;47.50;;;;;;5082734;28;46916;-17
2021/12/09 05:36:30;;;;;;;1.33;1.10;;;15.30;47.40;;;;;;5085301;28;47020;-21
2021/12/09 05:38:57;;;;;;;1.25;1.15;;;15.40;47.50;;;;;;5085558;28;47250;-22
2021/12/09 05:41:25;;;;;;;1.30;1.20;;;15.30;47.40;;;;;;5085163;28;48042;-17
2021/12/09 05:43:52;;;;;;;1.33;1.20;;;15.40;47.40;;;;;;5085465;28;47319;-21
2021/12/09 05:46:20;;;;;;;1.48;1.35;;;15.40;47.50;;;;;;5084426;28;46969;-21
2021/12/09 05:48:47;;;;;;;1.10;1.05;;;15.40;47.40;;;;;;5085572;28;46916;-20
2021/12/09 05:51:14;;;;;;;1.38;1.27;;;15.40;47.40;;;;;;5084944;28;49074;-17
2021/12/09 05:53:40;;;;;;;1.38;1.20;;;15.40;47.40;;;;;;5085473;28;46997;-18
2021/12/09 05:56:07;;;;;;;1.33;0.93;;;15.40;47.30;;;;;;5084758;27;46845;-22
2021/12/09 05:58:35;;;;;;;1.13;1.10;;;15.30;47.30;;;;;;5085832;28;47357;-18
2021/12/09 06:01:02;;;;;;;1.58;1.30;;;15.30;47.30;;;;;;5085090;28;47960;-18
2021/12/09 06:03:28;;;;;;;1.33;1.10;;;15.30;47.30;;;;;;5085050;28;46748;-18
2021/12/09 06:05:55;;;;;;;1.15;1.10;;;15.30;47.30;;;;;;5085255;28;47007;-22
2021/12/09 06:08:22;;;;;;;1.20;1.10;;;15.30;47.30;;;;;;5085188;28;46997;-17
2021/12/09 06:10:48;;;;;;;1.73;1.20;;;15.30;47.30;;;;;;5084721;28;46889;-18
2021/12/09 06:13:16;;;;;;;1.20;1.10;;;15.30;47.30;;;;;;5085191;28;46819;-22
2021/12/09 06:15:44;;;;;;;1.33;1.23;;;15.30;47.30;;;;;;5085080;28;46810;-21
2021/12/09 06:18:11;;;;;;;1.60;1.15;;;15.30;47.30;;;;;;5085135;28;47252;-19
2021/12/09 06:20:37;;;;;;;2.95;1.30;;;15.30;47.30;;;;;;5086519;27;47012;-21
2021/12/09 06:23:04;;;;;;;1.45;1.17;;;15.30;47.40;;;;;;5088612;28;46917;-17
2021/12/09 06:25:31;;;;;;;1.38;1.13;;;15.30;47.40;;;;;;5088511;28;47095;-21
2021/12/09 06:27:58;;;;;;;1.10;0.90;;;15.30;47.40;;;;;;5088667;28;47284;-21
2021/12/09 06:30:25;;;;;;;1.40;1.10;;;15.20;47.40;;;;;;5088170;28;48128;-21
2021/12/09 06:32:53;;;;;;;1.35;1.20;;;15.30;47.40;;;;;;5088565;28;47535;-21
2021/12/09 06:35:20;;;;;;;1.27;1.10;;;15.20;47.40;;;;;;5088307;28;46934;-17
2021/12/09 06:37:48;;;;;;;1.45;1.10;;;15.20;47.40;;;;;;5088329;28;46962;-17
2021/12/09 06:40:16;;;;;;;1.88;1.10;;;15.20;47.40;;;;;;5087259;28;47861;-17
2021/12/09 06:42:43;;;;;;;1.40;1.10;;;15.20;47.40;;;;;;5086365;28;47064;-17
2021/12/09 06:45:10;;;;;;;1.58;1.10;;;15.20;47.30;;;;;;5099781;27;46930;-17
2021/12/09 06:47:37;;;;;;;1.20;1.10;;;15.20;47.30;;;;;;5106058;27;47245;-17
2021/12/09 06:50:07;;;;;;;1.35;1.25;;;15.20;47.30;;;;;;5105636;27;47882;-17
2021/12/09 06:52:33;;;;;;;2.22;1.50;;;15.20;47.30;;;;;;5105933;27;46984;-18
2021/12/09 06:55:00;;;;;;;1.10;1.10;;;15.20;47.30;;;;;;5105208;27;47124;-21
2021/12/09 06:57:27;;;;;;;2.53;1.30;;;15.20;47.40;;;;;;5107449;27;46948;-21
2021/12/09 06:59:54;;;;;;;1.35;1.20;;;15.20;47.40;;;;;;5106298;27;47929;-17
2021/12/09 07:02:20;;;;;;;2.40;1.10;;;15.20;47.40;;;;;;5106679;27;46960;-18
2021/12/09 07:04:47;;;;;;;1.10;1.00;;;15.20;47.40;;;;;;5106574;27;47028;-17
2021/12/09 07:07:15;;;;;;;1.45;1.20;;;15.20;47.40;;;;;;5106915;27;47001;-18
2021/12/09 07:09:42;;;;;;;2.42;1.20;;;15.20;47.40;;;;;;5108237;27;48017;-17
2021/12/09 07:12:09;;;;;;;1.05;1.05;;;15.20;47.40;;;;;;5107397;27;46895;-21
2021/12/09 07:14:36;;;;;;;1.20;1.10;;;15.10;47.30;;;;;;5086328;27;46981;-21
2021/12/09 07:17:03;;;;;;;1.20;1.10;;;15.20;47.50;;;;;;5086583;28;47324;-22
2021/12/09 07:19:29;;;;;;;1.30;1.20;;;15.20;47.50;;;;;;5086370;28;47949;-21
2021/12/09 07:21:56;;;;;;;1.77;1.30;;;15.20;47.50;;;;;;5086413;28;46929;-22
2021/12/09 07:24:24;;;;;;;1.80;1.38;;;15.10;47.40;;;;;;5086409;28;46926;-18
2021/12/09 07:26:51;;;;;;;1.50;1.00;;;15.10;47.30;;;;;;5086509;28;46994;-17
2021/12/09 07:29:19;;;;;;;1.40;1.00;;;15.10;47.40;;;;;;5086661;28;49037;-17
2021/12/09 07:31:46;;;;;;;1.45;1.10;;;15.10;47.40;;;;;;5086214;27;47454;-17
2021/12/09 07:34:12;;;;;;;1.30;1.20;;;15.10;47.30;;;;;;5087424;28;46972;-18
2021/12/09 07:36:39;;;;;;;1.55;1.10;;;15.10;47.40;;;;;;5086507;27;46984;-18
2021/12/09 07:39:06;;;;;;;1.17;1.08;;;15.10;47.30;;;;;;5087327;28;47845;-18
2021/12/09 07:41:34;;;;;;;1.30;1.20;;;15.10;47.40;;;;;;5087191;28;46927;-17
2021/12/09 07:44:02;;;;;;;1.40;1.10;;;15.10;47.50;;;;;;5087369;28;46938;-17
2021/12/09 07:46:28;;;;;;;1.13;1.08;;;15.10;47.50;;;;;;5087348;27;46763;-17
2021/12/09 07:48:55;;;;;;;1.25;0.95;;;15.10;47.50;;;;;;5085470;28;47070;-17
2021/12/09 07:51:22;;;;;;;1.35;1.20;;;15.10;47.50;;;;;;5086490;28;46886;-21
2021/12/09 07:53:49;;;;;;;1.75;1.10;;;15.10;48.20;;;;;;5087256;28;46826;-21
2021/12/09 07:56:15;;;;;;;1.23;1.13;;;15.10;47.60;;;;;;5086799;28;47252;-17
2021/12/09 07:58:43;;;;;;;1.45;1.00;;;15.10;47.50;;;;;;5086960;28;48033;-17
2021/12/09 08:01:10;;;;;;;1.20;1.10;;;15.10;47.50;;;;;;5087022;28;46905;-17
2021/12/09 08:03:37;;;;;;;1.40;1.13;;;15.10;47.50;;;;;;5086852;28;46964;-18
2021/12/09 08:06:04;;;;;;;0.93;0.93;;;15.10;47.50;;;;;;5086514;27;47155;-17
2021/12/09 08:08:31;;;;;;;1.38;1.15;;;15.10;47.50;;;;;;5086870;28;49053;-17
2021/12/09 08:10:57;;;;;;;1.20;1.00;;;15.10;47.50;;;;;;5085991;28;46978;-17
2021/12/09 08:13:24;;;;;;;1.85;1.00;;;15.10;47.50;;;;;;5085830;28;46824;-17
2021/12/09 08:15:54;;;;;;;1.20;1.10;;;15.00;47.50;;;;;;5086822;28;46932;-21
2021/12/09 08:18:27;;;;;;;1.08;0.85;;;15.00;47.60;;;;;;5086508;28;48022;-22
2021/12/09 08:20:55;;;;;;;0.90;0.90;;;15.00;47.60;;;;;;5086471;27;47038;-21
2021/12/09 08:23:22;;;;;;;1.25;1.15;;;15.00;47.60;;;;;;5086992;28;46829;-17
2021/12/09 08:25:49;;;;;;;1.90;1.10;;;15.00;47.50;;;;;;5086349;28;47245;-17
2021/12/09 08:28:15;;;;;;;1.20;1.10;;;15.00;47.50;;;;;;5086541;28;49056;-17
2021/12/09 08:30:42;;;;;;;1.38;1.20;;;15.00;47.60;;;;;;5086282;28;47004;-21
2021/12/09 08:33:10;;;;;;;1.13;0.95;;;15.00;47.60;;;;;;5086401;27;46841;-20
2021/12/09 08:35:37;;;;;;;1.92;1.23;;;15.00;47.60;;;;;;5086554;28;46972;-17
2021/12/09 08:38:04;;;;;;;1.20;1.10;;;15.00;47.60;;;;;;5086302;28;48886;-17
2021/12/09 08:40:31;;;;;;;1.30;1.13;;;15.00;47.60;;;;;;5086040;28;47229;-17
2021/12/09 08:42:58;;;;;;;1.05;0.93;;;15.00;47.60;;;;;;5085702;27;46871;-18
2021/12/09 08:45:24;;;;;;;1.30;1.20;;;15.00;47.60;;;;;;5086297;28;47103;-17
2021/12/09 08:47:51;;;;;;;1.50;1.10;;;15.00;47.60;;;;;;5085930;28;47925;-18
2021/12/09 08:50:20;;;;;;;1.02;1.00;;;15.00;47.60;;;;;;5085813;28;47193;-19
2021/12/09 08:52:47;;;;;;;1.08;0.95;;;15.00;47.60;;;;;;5086218;28;46896;-18
2021/12/09 08:55:15;;;;;;;2.00;1.15;;;15.00;47.60;;;;;;5085899;28;47251;-18
2021/12/09 08:57:41;;;;;;;0.80;0.80;;;15.00;47.50;;;;;;5083579;28;48286;-18
2021/12/09 09:00:10;;;;;;;1.08;1.00;;;15.00;47.70;;;;;;5082995;28;47615;-17
2021/12/09 09:02:37;;;;;;;0.88;0.88;;;15.00;47.70;;;;;;5084315;27;46976;-17
2021/12/09 09:05:04;;;;;;;1.35;1.08;;;15.00;47.70;;;;;;5083625;28;46934;-18
2021/12/09 09:07:32;;;;;;;1.10;1.00;;;15.00;47.70;;;;;;5083758;28;49113;-17
2021/12/09 09:09:59;;;;;;;2.17;1.40;;;15.00;47.70;;;;;;5083925;28;46945;-18
2021/12/09 09:12:26;;;;;;;1.55;1.17;;;15.10;47.70;;;;;;5084034;28;46970;-18
2021/12/09 09:14:53;;;;;;;1.50;1.25;;;15.20;48.30;;;;;;5085720;28;46916;-17
2021/12/09 09:17:20;;;;;;;1.63;1.20;;;15.40;47.40;;;;;;5089597;27;47762;-21
2021/12/09 09:19:47;;;;;;;1.05;1.05;;;15.60;47.20;;;;;;5085470;27;47459;-21
2021/12/09 09:22:14;;;;;;;1.25;1.05;;;15.80;46.80;;;;;;5085687;27;46801;-21
2021/12/09 09:24:42;;;;;;;0.82;0.80;;;15.90;46.50;;;;;;5085706;27;46892;-21
2021/12/09 09:27:09;;;;;;;1.13;1.02;;;16.10;46.20;;;;;;5099084;27;47078;-21
2021/12/09 09:29:37;;;;;;;1.17;0.90;;;16.20;45.80;;;;;;5105719;27;47429;-20
2021/12/09 09:32:05;;;;;;;1.13;1.02;;;16.30;45.50;;;;;;5105522;27;46919;-20
2021/12/09 09:34:32;;;;;;;1.38;1.02;;;16.40;45.30;;;;;;5106076;27;47309;-20
2021/12/09 09:36:58;;;;;;;2.42;1.17;;;16.60;45.10;;;;;;5105423;27;47058;-21
2021/12/09 09:39:29;;;;;;;1.30;1.05;;;16.60;44.90;;;;;;5105776;27;46825;-21
2021/12/09 09:42:06;;;;;;;1.17;1.17;;;16.70;44.80;;;;;;5105513;27;46909;-22
2021/12/09 09:44:45;;;;;;;1.05;1.05;;;16.80;44.40;;;;;;5106250;27;46907;-21
2021/12/09 09:47:12;;;;;;;0.95;0.80;;;16.90;44.40;;;;;;5105314;27;47028;-22
2021/12/09 09:49:38;;;;;;;1.40;1.02;;;16.90;44.30;;;;;;5104573;27;47442;-21
2021/12/09 09:52:08;;;;;;;1.02;0.98;;;17.00;44.30;;;;;;5088054;27;46965;-22
2021/12/09 09:54:35;;;;;;;1.10;1.00;;;17.00;44.00;;;;;;5105649;27;47129;-21
2021/12/09 09:57:04;;;;;;;1.10;0.82;;;17.00;44.10;;;;;;5107398;27;47880;-22
2021/12/09 09:59:30;;;;;;;1.02;1.00;;;17.10;44.10;;;;;;5108752;27;47097;-22
2021/12/09 10:01:57;;;;;;;1.38;1.27;;;17.10;44.20;;;;;;5109134;27;47033;-22
2021/12/09 10:04:32;;;;;;;1.25;0.90;;;17.00;44.10;;;;;;5109448;27;46941;-21
2021/12/09 10:06:59;;;;;;;0.82;0.82;;;17.00;44.10;;;;;;5108901;27;49055;-21
2021/12/09 10:09:26;;;;;;;0.80;0.80;;;17.00;44.20;;;;;;5109060;27;46828;-22
2021/12/09 10:11:55;;;;;;;1.02;0.93;;;17.10;44.30;;;;;;5109123;27;47067;-21
2021/12/09 10:14:24;;;;;;;0.80;0.80;;;17.00;44.30;;;;;;5109069;27;47088;-22
2021/12/09 10:17:02;;;;;;;1.10;1.00;;;17.00;44.30;;;;;;5109087;27;49040;-21
2021/12/09 10:19:29;;;;;;;1.00;0.93;;;17.00;44.30;;;;;;5109226;27;47454;-22
2021/12/09 10:22:05;;;;;;;1.33;1.20;;;17.00;44.30;;;;;;5109008;27;46960;-21
2021/12/09 10:24:32;;;;;;;1.15;1.05;;;16.90;44.40;;;;;;5109393;27;46872;-21
2021/12/09 10:26:59;;;;;;;1.40;1.00;;;16.90;44.40;;;;;;5108750;27;46906;-22
2021/12/09 10:29:31;;;;;;;0.95;0.85;;;16.90;44.50;;;;;;5108629;27;47206;-21
2021/12/09 10:32:00;;;;;;;1.73;0.90;;;16.90;44.50;;;;;;5108926;27;46926;-21
2021/12/09 10:34:39;;;;;;;1.10;1.00;;;16.90;44.60;;;;;;5109315;27;46923;-21
2021/12/09 10:37:08;;;;;;;0.70;0.70;;;16.80;44.60;;;;;;5108650;27;48435;-22
2021/12/09 10:39:40;;;;;;;1.30;1.00;;;16.80;44.70;;;;;;5104515;27;46834;-21
2021/12/09 10:42:09;;;;;;;1.17;1.10;;;16.80;44.70;;;;;;5089692;27;46747;-21
2021/12/09 10:44:39;;;;;;;0.93;0.90;;;16.80;44.80;;;;;;5105237;27;46910;-21
2021/12/09 10:47:13;;;;;;;0.90;0.90;;;16.70;44.80;;;;;;5108509;27;47990;-21
2021/12/09 10:49:51;;;;;;;1.17;1.08;;;16.70;44.90;;;;;;5102402;27;46922;-22
2021/12/09 10:52:36;;;;;;;0.95;0.95;;;16.70;44.90;;;;;;5108535;27;46951;-21
2021/12/09 10:55:08;;;;;;;0.90;0.90;;;16.70;45.00;;;;;;5108264;27;46904;-21
2021/12/09 10:57:35;;;;;;;0.95;0.85;;;16.70;45.10;;;;;;5108499;27;49067;-18
2021/12/09 11:00:18;;;;;;;1.23;1.08;;;16.60;45.00;;;;;;5108128;27;46807;-21
2021/12/09 11:02:57;;;;;;;1.10;1.00;;;16.70;45.20;;;;;;5108617;27;46884;-17
2021/12/09 11:05:24;;;;;;;2.17;1.20;;;16.70;45.00;;;;;;5108121;27;46975;-18
2021/12/09 11:07:51;;;;;;;1.38;1.00;;;16.80;45.00;;;;;;5107848;27;49080;-17
2021/12/09 11:10:20;;;;;;;0.85;0.85;;;16.80;44.80;;;;;;5107767;27;46846;-18
2021/12/09 11:12:51;;;;;;;1.00;1.00;;;16.90;44.60;;;;;;5108128;27;46802;-18
2021/12/09 11:15:21;;;;;;;0.93;0.93;;;17.00;44.50;;;;;;5108163;27;46837;-18
2021/12/09 11:17:50;;;;;;;1.10;0.90;;;17.00;44.40;;;;;;5108252;27;48071;-19
2021/12/09 11:20:41;;;;;;;1.00;0.90;;;17.10;44.00;;;;;;5107442;27;46948;-19
2021/12/09 11:23:26;;;;;;;0.95;0.90;;;17.10;44.20;;;;;;5107892;27;47068;-17
2021/12/09 11:25:54;;;;;;;1.30;0.80;;;17.20;44.10;;;;;;5108418;27;47108;-17
2021/12/09 11:28:20;;;;;;;0.95;0.90;;;17.20;44.00;;;;;;5107561;27;47985;-18
2021/12/09 11:31:08;;;;;;;2.30;1.10;;;17.30;44.00;;;;;;5107467;27;47091;-17
2021/12/09 11:33:39;;;;;;;1.38;1.02;;;17.30;43.90;;;;;;5108268;27;46984;-18
2021/12/09 11:36:07;;;;;;;0.93;0.85;;;17.40;43.90;;;;;;5108092;27;46917;-17
2021/12/09 11:38:45;;;;;;;1.58;1.23;;;17.40;43.80;;;;;;5107641;27;48113;-17
2021/12/09 11:41:30;;;;;;;1.75;1.10;;;17.40;43.70;;;;;;5107560;27;46892;-17
2021/12/09 11:43:56;;;;;;;2.03;0.82;;;17.40;43.70;;;;;;5107582;27;46898;-17
2021/12/09 11:46:24;;;;;;;1.00;0.88;;;17.40;43.60;;;;;;5107979;27;46935;-17
2021/12/09 11:48:51;;;;;;;0.85;0.85;;;17.50;43.60;;;;;;5107710;27;48273;-17
2021/12/09 11:51:18;;;;;;;1.17;0.80;;;17.50;43.60;;;;;;5107234;27;46845;-17
2021/12/09 11:53:45;;;;;;;1.17;0.80;;;17.50;43.50;;;;;;5107726;27;46735;-17
2021/12/09 11:56:24;;;;;;;1.20;0.80;;;17.50;43.50;;;;;;5106911;27;46795;-17
2021/12/09 12:07:16;;;;;;;1.00;0.85;;;17.20;44.20;;;;;;5103219;27;47008;-17
2021/12/09 12:12:38;;;;;;;1.00;0.90;;;17.30;44.10;;;;;;5102810;27;46860;-17
2021/12/09 12:15:30;;;;;;;1.67;1.10;;;17.30;43.90;;;;;;5105299;27;47003;-17
2021/12/09 12:18:16;;;;;;;1.65;1.00;;;17.40;43.80;;;;;;5104885;27;46981;-18
2021/12/09 12:20:49;;;;;;;1.38;1.00;;;17.40;43.80;;;;;;5106021;27;47013;-17
2021/12/09 12:23:32;;;;;;;2.33;1.05;;;17.40;43.80;;;;;;5107278;27;46984;-16
2021/12/09 12:29:00;;;;;;;0.98;0.90;;;17.20;44.10;;;;;;5107046;27;47174;-21
2021/12/09 12:37:48;;;;;;;0.82;0.80;;;17.00;44.70;;;;;;5104838;27;46839;-21
2021/12/09 12:40:16;;;;;;;1.02;0.90;;;16.90;44.90;;;;;;5107402;27;46838;-21
2021/12/09 12:42:49;;;;;;;1.85;1.00;;;16.80;45.00;;;;;;5088815;27;48382;-21
2021/12/09 12:45:41;;;;;;;1.48;0.80;;;16.80;45.10;;;;;;5086341;27;46968;-21
2021/12/09 12:48:42;;;;;;;1.63;0.80;;;16.70;45.30;;;;;;5086612;27;46858;-17
2021/12/09 12:51:14;;;;;;;0.90;0.90;;;16.70;45.30;;;;;;5086313;27;46835;-17
2021/12/09 12:53:43;;;;;;;1.15;0.77;;;16.60;45.40;;;;;;5086256;27;48891;-17
2021/12/09 12:56:11;;;;;;;1.20;0.85;;;16.60;45.50;;;;;;5085290;27;47439;-17
2021/12/09 12:58:38;;;;;;;1.02;0.93;;;16.50;45.40;;;;;;5085769;27;46906;-21
2021/12/09 13:01:15;;;;;;;1.25;1.10;;;16.50;45.60;;;;;;5086264;27;47270;-20
2021/12/09 13:03:47;;;;;;;0.95;0.80;;;16.50;45.70;;;;;;5085840;27;47872;-21
2021/12/09 13:06:41;;;;;;;0.80;0.80;;;16.50;45.70;;;;;;5086006;27;46963;-21
2021/12/09 13:09:24;;;;;;;1.38;0.95;;;16.40;45.70;;;;;;5086175;27;46817;-20
2021/12/09 13:11:59;;;;;;;1.98;1.10;;;16.40;45.80;;;;;;5085990;27;46873;-21
2021/12/09 13:14:30;;;;;;;0.98;0.85;;;16.50;46.30;;;;;;5086054;27;48137;-20
2021/12/09 13:17:08;;;;;;;1.65;0.75;;;16.60;45.40;;;;;;5085898;27;46920;-20
2021/12/09 13:19:39;;;;;;;1.73;1.00;;;16.70;45.30;;;;;;5085834;27;46757;-20